sensor_id;sensor_type;location;lat;lon;timestamp;temperature;humidity
18141;DHT22;9196;49.194;12.526;2023-08-24T00:00:52;19.80;99.90
18141;DHT22;9196;49.194;12.526;2023-08-24T00:03:19;19.70;99.90
18141;DHT22;9196;49.194;12.526;2023-08-24T00:05:47;19.70;99.90
18141;DHT22;9196;49.194;12.526;2023-08-24T00:08:14;19.70;99.90
18141;DHT22;9196;49.194;12.526;2023-08-24T00:10:43;19.70;99.90
18141;DHT22;9196;49.194;12.526;2023-08-24T00:13:13;19.70;99.90
18141;DHT22;9196;49.194;12.526;2023-08-24T00:15:40;19.80;99.90
18141;DHT22;9196;49.194;12.526;2023-08-24T00:18:07;19.60;99.90
18141;DHT22;9196;49.194;12.526;2023-08-24T00:20:34;19.70;99.90
18141;DHT22;9196;49.194;12.526;2023-08-24T00:23:01;19.60;99.90
18141;DHT22;9196;49.194;12.526;2023-08-24T00:25:29;19.60;99.90
18141;DHT22;9196;49.194;12.526;2023-08-24T00:27:56;19.50;99.90
18141;DHT22;9196;49.194;12.526;2023-08-24T00:30:24;19.40;99.90
18141;DHT22;9196;49.194;12.526;2023-08-24T00:32:51;19.40;99.90
18141;DHT22;9196;49.194;12.526;2023-08-24T00:35:18;19.40;99.90
18141;DHT22;9196;49.194;12.526;2023-08-24T00:37:45;19.40;99.90
18141;DHT22;9196;49.194;12.526;2023-08-24T00:40:12;19.40;99.90
18141;DHT22;9196;49.194;12.526;2023-08-24T00:42:40;19.30;99.90
18141;DHT22;9196;49.194;12.526;2023-08-24T00:45:08;19.30;99.90
18141;DHT22;9196;49.194;12.526;2023-08-24T00:47:37;19.20;99.90
18141;DHT22;9196;49.194;12.526;2023-08-24T00:50:06;19.20;99.90
18141;DHT22;9196;49.194;12.526;2023-08-24T00:52:33;19.20;99.90
18141;DHT22;9196;49.194;12.526;2023-08-24T00:55:02;19.00;99.90
18141;DHT22;9196;49.194;12.526;2023-08-24T00:57:30;19.00;99.90
18141;DHT22;9196;49.194;12.526;2023-08-24T00:59:58;18.90;99.90
18141;DHT22;9196;49.194;12.526;2023-08-24T01:02:25;19.00;99.90
18141;DHT22;9196;49.194;12.526;2023-08-24T01:04:53;19.10;99.90
18141;DHT22;9196;49.194;12.526;2023-08-24T01:07:21;19.00;99.90
18141;DHT22;9196;49.194;12.526;2023-08-24T01:09:48;19.00;99.90
18141;DHT22;9196;49.194;12.526;2023-08-24T01:12:23;19.00;99.90
18141;DHT22;9196;49.194;12.526;2023-08-24T01:15:01;19.00;99.90
18141;DHT22;9196;49.194;12.526;2023-08-24T01:17:30;18.90;99.90
18141;DHT22;9196;49.194;12.526;2023-08-24T01:19:59;18.80;99.90
18141;DHT22;9196;49.194;12.526;2023-08-24T01:22:33;18.90;99.90
18141;DHT22;9196;49.194;12.526;2023-08-24T01:25:06;18.80;99.90
18141;DHT22;9196;49.194;12.526;2023-08-24T01:27:36;18.80;99.90
18141;DHT22;9196;49.194;12.526;2023-08-24T01:30:03;18.80;99.90
18141;DHT22;9196;49.194;12.526;2023-08-24T01:32:30;18.80;99.90
18141;DHT22;9196;49.194;12.526;2023-08-24T01:34:58;18.70;99.90
18141;DHT22;9196;49.194;12.526;2023-08-24T01:37:26;18.70;99.90
18141;DHT22;9196;49.194;12.526;2023-08-24T01:40:00;18.70;99.90
18141;DHT22;9196;49.194;12.526;2023-08-24T01:42:31;18.70;99.90
18141;DHT22;9196;49.194;12.526;2023-08-24T01:45:05;18.70;99.90
18141;DHT22;9196;49.194;12.526;2023-08-24T01:47:34;18.70;99.90
18141;DHT22;9196;49.194;12.526;2023-08-24T01:50:02;18.50;99.90
18141;DHT22;9196;49.194;12.526;2023-08-24T01:52:30;18.70;99.90
18141;DHT22;9196;49.194;12.526;2023-08-24T01:54:58;18.60;99.90
18141;DHT22;9196;49.194;12.526;2023-08-24T01:57:25;18.60;99.90
18141;DHT22;9196;49.194;12.526;2023-08-24T01:59:52;18.50;99.90
18141;DHT22;9196;49.194;12.526;2023-08-24T02:02:20;18.50;99.90
18141;DHT22;9196;49.194;12.526;2023-08-24T02:04:47;18.40;99.90
18141;DHT22;9196;49.194;12.526;2023-08-24T02:07:14;18.30;99.90
18141;DHT22;9196;49.194;12.526;2023-08-24T02:09:41;18.30;99.90
18141;DHT22;9196;49.194;12.526;2023-08-24T02:12:08;18.30;99.90
18141;DHT22;9196;49.194;12.526;2023-08-24T02:14:35;18.20;99.90
18141;DHT22;9196;49.194;12.526;2023-08-24T02:17:01;18.30;99.90
18141;DHT22;9196;49.194;12.526;2023-08-24T02:19:30;18.30;99.90
18141;DHT22;9196;49.194;12.526;2023-08-24T02:21:57;18.30;99.90
18141;DHT22;9196;49.194;12.526;2023-08-24T02:24:24;18.20;99.90
18141;DHT22;9196;49.194;12.526;2023-08-24T02:26:51;18.10;99.90
18141;DHT22;9196;49.194;12.526;2023-08-24T02:29:17;18.20;99.90
18141;DHT22;9196;49.194;12.526;2023-08-24T02:31:44;18.20;99.90
18141;DHT22;9196;49.194;12.526;2023-08-24T02:34:11;18.20;99.90
18141;DHT22;9196;49.194;12.526;2023-08-24T02:36:39;18.10;99.90
18141;DHT22;9196;49.194;12.526;2023-08-24T02:39:06;18.10;99.90
18141;DHT22;9196;49.194;12.526;2023-08-24T02:41:34;18.10;99.90
18141;DHT22;9196;49.194;12.526;2023-08-24T02:44:01;18.00;99.90
18141;DHT22;9196;49.194;12.526;2023-08-24T02:46:28;18.00;99.90
18141;DHT22;9196;49.194;12.526;2023-08-24T02:48:55;18.10;99.90
18141;DHT22;9196;49.194;12.526;2023-08-24T02:51:22;18.10;99.90
18141;DHT22;9196;49.194;12.526;2023-08-24T02:53:50;18.00;99.90
18141;DHT22;9196;49.194;12.526;2023-08-24T02:56:18;17.90;99.90
18141;DHT22;9196;49.194;12.526;2023-08-24T02:58:44;17.90;99.90
18141;DHT22;9196;49.194;12.526;2023-08-24T03:01:11;17.80;99.90
18141;DHT22;9196;49.194;12.526;2023-08-24T03:03:38;17.80;99.90
18141;DHT22;9196;49.194;12.526;2023-08-24T03:06:06;17.80;99.90
18141;DHT22;9196;49.194;12.526;2023-08-24T03:08:34;17.80;99.90
18141;DHT22;9196;49.194;12.526;2023-08-24T03:11:02;17.80;99.90
18141;DHT22;9196;49.194;12.526;2023-08-24T03:13:30;17.80;99.90
18141;DHT22;9196;49.194;12.526;2023-08-24T03:15:57;17.80;99.90
18141;DHT22;9196;49.194;12.526;2023-08-24T03:18:29;17.80;99.90
18141;DHT22;9196;49.194;12.526;2023-08-24T03:20:56;17.70;99.90
18141;DHT22;9196;49.194;12.526;2023-08-24T03:23:23;17.80;99.90
18141;DHT22;9196;49.194;12.526;2023-08-24T03:25:50;17.70;99.90
18141;DHT22;9196;49.194;12.526;2023-08-24T03:28:18;17.70;99.90
18141;DHT22;9196;49.194;12.526;2023-08-24T03:30:47;17.70;99.90
18141;DHT22;9196;49.194;12.526;2023-08-24T03:33:14;17.70;99.90
18141;DHT22;9196;49.194;12.526;2023-08-24T03:35:41;17.70;99.90
18141;DHT22;9196;49.194;12.526;2023-08-24T03:38:09;17.70;99.90
18141;DHT22;9196;49.194;12.526;2023-08-24T03:40:35;17.70;99.90
18141;DHT22;9196;49.194;12.526;2023-08-24T03:43:03;17.70;99.90
18141;DHT22;9196;49.194;12.526;2023-08-24T03:45:31;17.70;99.90
18141;DHT22;9196;49.194;12.526;2023-08-24T03:47:58;17.70;99.90
18141;DHT22;9196;49.194;12.526;2023-08-24T03:50:25;17.60;99.90
18141;DHT22;9196;49.194;12.526;2023-08-24T03:52:53;17.60;99.90
18141;DHT22;9196;49.194;12.526;2023-08-24T03:55:20;17.60;99.90
18141;DHT22;9196;49.194;12.526;2023-08-24T03:57:48;17.60;99.90
18141;DHT22;9196;49.194;12.526;2023-08-24T04:00:15;17.60;99.90
18141;DHT22;9196;49.194;12.526;2023-08-24T04:02:44;17.60;99.90
18141;DHT22;9196;49.194;12.526;2023-08-24T04:05:11;17.80;99.90
18141;DHT22;9196;49.194;12.526;2023-08-24T04:07:38;17.90;99.90
18141;DHT22;9196;49.194;12.526;2023-08-24T04:10:07;18.00;99.90
18141;DHT22;9196;49.194;12.526;2023-08-24T04:12:34;18.00;99.90
18141;DHT22;9196;49.194;12.526;2023-08-24T04:15:02;18.10;99.90
18141;DHT22;9196;49.194;12.526;2023-08-24T04:17:30;18.20;99.90
18141;DHT22;9196;49.194;12.526;2023-08-24T04:19:58;18.20;99.90
18141;DHT22;9196;49.194;12.526;2023-08-24T04:22:25;18.20;99.90
18141;DHT22;9196;49.194;12.526;2023-08-24T04:24:52;18.30;99.90
18141;DHT22;9196;49.194;12.526;2023-08-24T04:27:19;18.40;99.90
18141;DHT22;9196;49.194;12.526;2023-08-24T04:29:47;18.40;99.90
18141;DHT22;9196;49.194;12.526;2023-08-24T04:32:14;18.40;99.90
18141;DHT22;9196;49.194;12.526;2023-08-24T04:34:41;18.40;99.90
18141;DHT22;9196;49.194;12.526;2023-08-24T04:37:09;18.40;99.90
18141;DHT22;9196;49.194;12.526;2023-08-24T04:39:36;18.40;99.90
18141;DHT22;9196;49.194;12.526;2023-08-24T04:42:03;18.40;99.90
18141;DHT22;9196;49.194;12.526;2023-08-24T04:44:30;18.30;99.90
18141;DHT22;9196;49.194;12.526;2023-08-24T04:46:56;18.20;99.90
18141;DHT22;9196;49.194;12.526;2023-08-24T04:49:23;18.20;99.90
18141;DHT22;9196;49.194;12.526;2023-08-24T04:51:50;18.10;99.90
18141;DHT22;9196;49.194;12.526;2023-08-24T04:54:18;18.10;99.90
18141;DHT22;9196;49.194;12.526;2023-08-24T04:56:45;18.00;99.90
18141;DHT22;9196;49.194;12.526;2023-08-24T04:59:12;17.90;99.90
18141;DHT22;9196;49.194;12.526;2023-08-24T05:01:38;18.00;99.90
18141;DHT22;9196;49.194;12.526;2023-08-24T05:04:05;18.10;99.90
18141;DHT22;9196;49.194;12.526;2023-08-24T05:06:32;18.20;99.90
18141;DHT22;9196;49.194;12.526;2023-08-24T05:08:59;18.30;99.90
18141;DHT22;9196;49.194;12.526;2023-08-24T05:11:28;18.50;99.90
18141;DHT22;9196;49.194;12.526;2023-08-24T05:13:56;18.50;99.90
18141;DHT22;9196;49.194;12.526;2023-08-24T05:16:23;18.60;99.90
18141;DHT22;9196;49.194;12.526;2023-08-24T05:18:50;18.70;99.90
18141;DHT22;9196;49.194;12.526;2023-08-24T05:21:16;18.90;99.90
18141;DHT22;9196;49.194;12.526;2023-08-24T05:23:43;19.00;99.90
18141;DHT22;9196;49.194;12.526;2023-08-24T05:26:10;19.10;99.90
18141;DHT22;9196;49.194;12.526;2023-08-24T05:28:38;19.20;99.90
18141;DHT22;9196;49.194;12.526;2023-08-24T05:31:05;19.30;99.90
18141;DHT22;9196;49.194;12.526;2023-08-24T05:33:32;19.40;99.90
18141;DHT22;9196;49.194;12.526;2023-08-24T05:35:59;19.60;99.90
18141;DHT22;9196;49.194;12.526;2023-08-24T05:38:25;19.50;99.90
18141;DHT22;9196;49.194;12.526;2023-08-24T05:40:52;19.70;99.90
18141;DHT22;9196;49.194;12.526;2023-08-24T05:43:18;19.80;99.90
18141;DHT22;9196;49.194;12.526;2023-08-24T05:45:48;19.90;99.90
18141;DHT22;9196;49.194;12.526;2023-08-24T05:48:15;19.90;99.90
18141;DHT22;9196;49.194;12.526;2023-08-24T05:50:46;20.00;99.90
18141;DHT22;9196;49.194;12.526;2023-08-24T05:53:13;20.00;99.90
18141;DHT22;9196;49.194;12.526;2023-08-24T05:55:40;20.10;99.90
18141;DHT22;9196;49.194;12.526;2023-08-24T05:58:07;20.10;99.90
18141;DHT22;9196;49.194;12.526;2023-08-24T06:00:34;20.20;99.90
18141;DHT22;9196;49.194;12.526;2023-08-24T06:03:03;20.30;99.90
18141;DHT22;9196;49.194;12.526;2023-08-24T06:05:30;20.40;99.90
18141;DHT22;9196;49.194;12.526;2023-08-24T06:07:57;20.30;99.90
18141;DHT22;9196;49.194;12.526;2023-08-24T06:10:24;20.40;99.90
18141;DHT22;9196;49.194;12.526;2023-08-24T06:12:52;20.40;99.90
18141;DHT22;9196;49.194;12.526;2023-08-24T06:15:19;20.50;99.90
18141;DHT22;9196;49.194;12.526;2023-08-24T06:17:49;20.60;99.90
18141;DHT22;9196;49.194;12.526;2023-08-24T06:20:18;20.60;99.90
18141;DHT22;9196;49.194;12.526;2023-08-24T06:22:45;20.50;99.90
18141;DHT22;9196;49.194;12.526;2023-08-24T06:25:12;20.60;99.90
18141;DHT22;9196;49.194;12.526;2023-08-24T06:27:40;20.70;99.90
18141;DHT22;9196;49.194;12.526;2023-08-24T06:30:07;20.80;99.90
18141;DHT22;9196;49.194;12.526;2023-08-24T06:32:34;21.00;99.90
18141;DHT22;9196;49.194;12.526;2023-08-24T06:35:01;21.10;99.90
18141;DHT22;9196;49.194;12.526;2023-08-24T06:37:30;21.20;99.90
18141;DHT22;9196;49.194;12.526;2023-08-24T06:39:57;21.30;99.90
18141;DHT22;9196;49.194;12.526;2023-08-24T06:42:23;21.20;99.90
18141;DHT22;9196;49.194;12.526;2023-08-24T06:44:50;21.40;99.90
18141;DHT22;9196;49.194;12.526;2023-08-24T06:47:17;21.40;99.90
18141;DHT22;9196;49.194;12.526;2023-08-24T06:49:44;21.40;99.90
18141;DHT22;9196;49.194;12.526;2023-08-24T06:52:11;21.50;99.90
18141;DHT22;9196;49.194;12.526;2023-08-24T06:54:39;21.40;99.90
18141;DHT22;9196;49.194;12.526;2023-08-24T06:57:06;21.60;99.90
18141;DHT22;9196;49.194;12.526;2023-08-24T06:59:33;21.70;99.90
18141;DHT22;9196;49.194;12.526;2023-08-24T07:02:00;22.00;99.90
18141;DHT22;9196;49.194;12.526;2023-08-24T07:04:27;22.20;99.90
18141;DHT22;9196;49.194;12.526;2023-08-24T07:06:55;22.30;99.90
18141;DHT22;9196;49.194;12.526;2023-08-24T07:09:21;22.60;99.90
18141;DHT22;9196;49.194;12.526;2023-08-24T07:11:50;22.60;99.90
18141;DHT22;9196;49.194;12.526;2023-08-24T07:14:16;22.60;99.90
18141;DHT22;9196;49.194;12.526;2023-08-24T07:16:43;22.60;99.90
18141;DHT22;9196;49.194;12.526;2023-08-24T07:19:10;22.70;99.90
18141;DHT22;9196;49.194;12.526;2023-08-24T07:21:37;22.70;99.90
18141;DHT22;9196;49.194;12.526;2023-08-24T07:24:04;22.90;99.90
18141;DHT22;9196;49.194;12.526;2023-08-24T07:26:31;23.00;99.90
18141;DHT22;9196;49.194;12.526;2023-08-24T07:28:59;23.20;99.90
18141;DHT22;9196;49.194;12.526;2023-08-24T07:31:26;23.20;99.90
18141;DHT22;9196;49.194;12.526;2023-08-24T07:33:53;23.30;99.90
18141;DHT22;9196;49.194;12.526;2023-08-24T07:36:20;23.40;99.90
18141;DHT22;9196;49.194;12.526;2023-08-24T07:38:47;23.60;99.90
18141;DHT22;9196;49.194;12.526;2023-08-24T07:41:13;23.80;99.90
18141;DHT22;9196;49.194;12.526;2023-08-24T07:43:42;23.90;99.90
18141;DHT22;9196;49.194;12.526;2023-08-24T07:46:11;23.80;99.90
18141;DHT22;9196;49.194;12.526;2023-08-24T07:48:37;23.90;99.90
18141;DHT22;9196;49.194;12.526;2023-08-24T07:51:04;23.80;99.90
18141;DHT22;9196;49.194;12.526;2023-08-24T07:53:32;23.80;99.90
18141;DHT22;9196;49.194;12.526;2023-08-24T07:56:00;23.90;99.90
18141;DHT22;9196;49.194;12.526;2023-08-24T07:58:27;23.90;99.90
18141;DHT22;9196;49.194;12.526;2023-08-24T08:00:54;23.90;99.90
18141;DHT22;9196;49.194;12.526;2023-08-24T08:03:22;24.00;99.90
18141;DHT22;9196;49.194;12.526;2023-08-24T08:05:49;24.00;99.90
18141;DHT22;9196;49.194;12.526;2023-08-24T08:08:16;23.90;99.90
18141;DHT22;9196;49.194;12.526;2023-08-24T08:10:43;24.00;99.90
18141;DHT22;9196;49.194;12.526;2023-08-24T08:13:11;24.20;99.90
18141;DHT22;9196;49.194;12.526;2023-08-24T08:15:38;24.30;99.90
18141;DHT22;9196;49.194;12.526;2023-08-24T08:18:05;24.40;99.90
18141;DHT22;9196;49.194;12.526;2023-08-24T08:20:33;24.40;99.90
18141;DHT22;9196;49.194;12.526;2023-08-24T08:23:00;24.50;99.90
18141;DHT22;9196;49.194;12.526;2023-08-24T08:25:27;24.60;99.90
18141;DHT22;9196;49.194;12.526;2023-08-24T08:27:54;24.60;99.90
18141;DHT22;9196;49.194;12.526;2023-08-24T08:30:21;24.70;99.90
18141;DHT22;9196;49.194;12.526;2023-08-24T08:32:48;24.80;99.90
18141;DHT22;9196;49.194;12.526;2023-08-24T08:35:16;24.80;99.90
18141;DHT22;9196;49.194;12.526;2023-08-24T08:37:45;24.70;99.90
18141;DHT22;9196;49.194;12.526;2023-08-24T08:40:12;24.60;99.90
18141;DHT22;9196;49.194;12.526;2023-08-24T08:42:39;24.60;99.90
18141;DHT22;9196;49.194;12.526;2023-08-24T08:45:09;24.50;99.90
18141;DHT22;9196;49.194;12.526;2023-08-24T08:47:36;24.50;99.90
18141;DHT22;9196;49.194;12.526;2023-08-24T08:50:04;24.40;99.90
18141;DHT22;9196;49.194;12.526;2023-08-24T08:52:31;24.40;99.90
18141;DHT22;9196;49.194;12.526;2023-08-24T08:55:00;24.40;99.90
18141;DHT22;9196;49.194;12.526;2023-08-24T08:57:32;24.60;99.90
18141;DHT22;9196;49.194;12.526;2023-08-24T08:59:59;24.70;99.90
18141;DHT22;9196;49.194;12.526;2023-08-24T09:02:28;25.00;99.90
18141;DHT22;9196;49.194;12.526;2023-08-24T09:04:56;25.20;99.90
18141;DHT22;9196;49.194;12.526;2023-08-24T09:07:23;25.40;99.90
18141;DHT22;9196;49.194;12.526;2023-08-24T09:09:50;25.30;99.90
18141;DHT22;9196;49.194;12.526;2023-08-24T09:12:18;25.40;99.90
18141;DHT22;9196;49.194;12.526;2023-08-24T09:14:45;25.60;99.90
18141;DHT22;9196;49.194;12.526;2023-08-24T09:17:19;25.70;99.90
18141;DHT22;9196;49.194;12.526;2023-08-24T09:19:49;25.90;99.90
18141;DHT22;9196;49.194;12.526;2023-08-24T09:22:17;26.20;99.90
18141;DHT22;9196;49.194;12.526;2023-08-24T09:24:43;26.30;99.90
18141;DHT22;9196;49.194;12.526;2023-08-24T09:27:15;26.30;99.90
18141;DHT22;9196;49.194;12.526;2023-08-24T09:29:47;26.40;99.90
18141;DHT22;9196;49.194;12.526;2023-08-24T09:32:15;26.50;99.90
18141;DHT22;9196;49.194;12.526;2023-08-24T09:34:47;26.60;99.90
18141;DHT22;9196;49.194;12.526;2023-08-24T09:37:14;26.80;99.80
18141;DHT22;9196;49.194;12.526;2023-08-24T09:39:41;26.90;99.90
18141;DHT22;9196;49.194;12.526;2023-08-24T09:42:08;26.90;99.90
18141;DHT22;9196;49.194;12.526;2023-08-24T09:44:35;26.90;99.90
18141;DHT22;9196;49.194;12.526;2023-08-24T09:47:09;26.90;99.10
18141;DHT22;9196;49.194;12.526;2023-08-24T09:49:36;27.00;98.50
18141;DHT22;9196;49.194;12.526;2023-08-24T09:52:06;27.00;99.30
18141;DHT22;9196;49.194;12.526;2023-08-24T09:54:37;27.00;99.10
18141;DHT22;9196;49.194;12.526;2023-08-24T09:57:06;27.20;98.00
18141;DHT22;9196;49.194;12.526;2023-08-24T09:59:34;27.30;96.30
18141;DHT22;9196;49.194;12.526;2023-08-24T10:02:05;27.40;97.70
18141;DHT22;9196;49.194;12.526;2023-08-24T10:04:36;27.50;97.70
18141;DHT22;9196;49.194;12.526;2023-08-24T10:07:08;27.70;95.70
18141;DHT22;9196;49.194;12.526;2023-08-24T10:09:39;27.70;95.50
18141;DHT22;9196;49.194;12.526;2023-08-24T10:12:10;27.80;96.00
18141;DHT22;9196;49.194;12.526;2023-08-24T10:14:44;27.90;95.80
18141;DHT22;9196;49.194;12.526;2023-08-24T10:17:14;27.90;94.50
18141;DHT22;9196;49.194;12.526;2023-08-24T10:19:42;28.00;94.10
18141;DHT22;9196;49.194;12.526;2023-08-24T10:22:10;28.20;94.60
18141;DHT22;9196;49.194;12.526;2023-08-24T10:24:37;28.20;93.70
18141;DHT22;9196;49.194;12.526;2023-08-24T10:27:05;28.10;93.60
18141;DHT22;9196;49.194;12.526;2023-08-24T10:29:35;28.30;94.00
18141;DHT22;9196;49.194;12.526;2023-08-24T10:32:03;28.30;93.40
18141;DHT22;9196;49.194;12.526;2023-08-24T10:34:32;28.40;93.00
18141;DHT22;9196;49.194;12.526;2023-08-24T10:37:07;28.50;92.80
18141;DHT22;9196;49.194;12.526;2023-08-24T10:39:35;28.60;92.80
18141;DHT22;9196;49.194;12.526;2023-08-24T10:42:04;28.60;91.20
18141;DHT22;9196;49.194;12.526;2023-08-24T10:44:36;28.50;91.90
18141;DHT22;9196;49.194;12.526;2023-08-24T10:47:07;28.60;92.20
18141;DHT22;9196;49.194;12.526;2023-08-24T10:49:36;28.70;91.80
18141;DHT22;9196;49.194;12.526;2023-08-24T10:52:21;28.80;91.80
18141;DHT22;9196;49.194;12.526;2023-08-24T10:54:48;28.90;90.80
18141;DHT22;9196;49.194;12.526;2023-08-24T10:57:23;29.10;90.70
18141;DHT22;9196;49.194;12.526;2023-08-24T11:00:08;29.20;89.40
18141;DHT22;9196;49.194;12.526;2023-08-24T11:02:43;29.30;88.60
18141;DHT22;9196;49.194;12.526;2023-08-24T11:05:19;29.50;88.10
18141;DHT22;9196;49.194;12.526;2023-08-24T11:07:51;29.70;89.20
18141;DHT22;9196;49.194;12.526;2023-08-24T11:10:18;29.80;86.30
18141;DHT22;9196;49.194;12.526;2023-08-24T11:13:04;29.90;86.80
18141;DHT22;9196;49.194;12.526;2023-08-24T11:15:31;30.00;85.60
18141;DHT22;9196;49.194;12.526;2023-08-24T11:18:20;30.00;85.40
18141;DHT22;9196;49.194;12.526;2023-08-24T11:20:51;29.90;86.00
18141;DHT22;9196;49.194;12.526;2023-08-24T11:23:19;30.00;84.20
18141;DHT22;9196;49.194;12.526;2023-08-24T11:25:47;30.20;82.90
18141;DHT22;9196;49.194;12.526;2023-08-24T11:28:17;30.20;81.60
18141;DHT22;9196;49.194;12.526;2023-08-24T11:30:45;30.20;83.10
18141;DHT22;9196;49.194;12.526;2023-08-24T11:33:12;30.30;82.60
18141;DHT22;9196;49.194;12.526;2023-08-24T11:35:41;30.30;75.60
18141;DHT22;9196;49.194;12.526;2023-08-24T11:38:10;30.00;70.20
18141;DHT22;9196;49.194;12.526;2023-08-24T11:40:37;30.10;75.40
18141;DHT22;9196;49.194;12.526;2023-08-24T11:43:04;30.30;78.50
18141;DHT22;9196;49.194;12.526;2023-08-24T11:45:31;30.50;75.90
18141;DHT22;9196;49.194;12.526;2023-08-24T11:47:59;30.50;72.90
18141;DHT22;9196;49.194;12.526;2023-08-24T11:50:26;30.80;73.50
18141;DHT22;9196;49.194;12.526;2023-08-24T11:52:56;31.00;75.00
18141;DHT22;9196;49.194;12.526;2023-08-24T11:55:26;31.20;77.10
18141;DHT22;9196;49.194;12.526;2023-08-24T11:57:53;31.50;75.60
18141;DHT22;9196;49.194;12.526;2023-08-24T12:00:21;31.50;73.40
18141;DHT22;9196;49.194;12.526;2023-08-24T12:02:49;31.40;73.60
18141;DHT22;9196;49.194;12.526;2023-08-24T12:05:23;31.60;73.80
18141;DHT22;9196;49.194;12.526;2023-08-24T12:07:51;31.60;72.80
18141;DHT22;9196;49.194;12.526;2023-08-24T12:10:19;31.80;73.20
18141;DHT22;9196;49.194;12.526;2023-08-24T12:12:47;31.80;71.90
18141;DHT22;9196;49.194;12.526;2023-08-24T12:15:17;31.80;71.10
18141;DHT22;9196;49.194;12.526;2023-08-24T12:17:46;31.90;71.50
18141;DHT22;9196;49.194;12.526;2023-08-24T12:20:18;32.10;68.40
18141;DHT22;9196;49.194;12.526;2023-08-24T12:22:51;32.10;68.00
18141;DHT22;9196;49.194;12.526;2023-08-24T12:25:21;32.00;68.70
18141;DHT22;9196;49.194;12.526;2023-08-24T12:27:50;32.20;65.70
18141;DHT22;9196;49.194;12.526;2023-08-24T12:30:17;32.10;65.90
18141;DHT22;9196;49.194;12.526;2023-08-24T12:32:45;32.10;66.60
18141;DHT22;9196;49.194;12.526;2023-08-24T12:35:15;32.00;64.60
18141;DHT22;9196;49.194;12.526;2023-08-24T12:37:42;32.00;61.10
18141;DHT22;9196;49.194;12.526;2023-08-24T12:40:09;32.20;62.80
18141;DHT22;9196;49.194;12.526;2023-08-24T12:42:36;32.30;63.90
18141;DHT22;9196;49.194;12.526;2023-08-24T12:45:05;32.50;65.80
18141;DHT22;9196;49.194;12.526;2023-08-24T12:47:33;32.50;62.80
18141;DHT22;9196;49.194;12.526;2023-08-24T12:50:05;32.60;63.60
18141;DHT22;9196;49.194;12.526;2023-08-24T12:52:31;32.50;59.00
18141;DHT22;9196;49.194;12.526;2023-08-24T12:54:58;32.20;58.90
18141;DHT22;9196;49.194;12.526;2023-08-24T12:57:25;32.10;62.00
18141;DHT22;9196;49.194;12.526;2023-08-24T12:59:52;31.90;59.70
18141;DHT22;9196;49.194;12.526;2023-08-24T13:02:21;31.90;59.00
18141;DHT22;9196;49.194;12.526;2023-08-24T13:04:48;32.20;60.60
18141;DHT22;9196;49.194;12.526;2023-08-24T13:07:15;32.40;60.80
18141;DHT22;9196;49.194;12.526;2023-08-24T13:09:41;32.50;60.30
18141;DHT22;9196;49.194;12.526;2023-08-24T13:12:08;32.60;59.40
18141;DHT22;9196;49.194;12.526;2023-08-24T13:14:35;32.70;60.00
18141;DHT22;9196;49.194;12.526;2023-08-24T13:17:02;32.80;60.00
18141;DHT22;9196;49.194;12.526;2023-08-24T13:19:30;32.80;61.20
18141;DHT22;9196;49.194;12.526;2023-08-24T13:21:57;33.00;62.40
18141;DHT22;9196;49.194;12.526;2023-08-24T13:24:24;33.20;61.40
18141;DHT22;9196;49.194;12.526;2023-08-24T13:26:51;33.20;59.30
18141;DHT22;9196;49.194;12.526;2023-08-24T13:29:17;33.20;60.50
18141;DHT22;9196;49.194;12.526;2023-08-24T13:31:44;33.10;62.10
18141;DHT22;9196;49.194;12.526;2023-08-24T13:34:11;33.00;60.80
18141;DHT22;9196;49.194;12.526;2023-08-24T13:36:39;33.10;60.70
18141;DHT22;9196;49.194;12.526;2023-08-24T13:39:06;33.10;60.00
18141;DHT22;9196;49.194;12.526;2023-08-24T13:41:33;33.00;60.40
18141;DHT22;9196;49.194;12.526;2023-08-24T13:43:59;33.00;61.70
18141;DHT22;9196;49.194;12.526;2023-08-24T13:46:26;33.00;59.00
18141;DHT22;9196;49.194;12.526;2023-08-24T13:48:53;32.60;59.30
18141;DHT22;9196;49.194;12.526;2023-08-24T13:51:20;32.40;58.90
18141;DHT22;9196;49.194;12.526;2023-08-24T13:53:48;32.50;60.10
18141;DHT22;9196;49.194;12.526;2023-08-24T13:56:15;32.80;62.00
18141;DHT22;9196;49.194;12.526;2023-08-24T13:58:42;33.00;61.50
18141;DHT22;9196;49.194;12.526;2023-08-24T14:01:09;33.30;60.50
18141;DHT22;9196;49.194;12.526;2023-08-24T14:03:38;33.70;60.40
18141;DHT22;9196;49.194;12.526;2023-08-24T14:06:05;33.90;60.40
18141;DHT22;9196;49.194;12.526;2023-08-24T14:08:32;34.10;59.60
18141;DHT22;9196;49.194;12.526;2023-08-24T14:11:00;34.30;59.70
18141;DHT22;9196;49.194;12.526;2023-08-24T14:13:27;34.50;60.00
18141;DHT22;9196;49.194;12.526;2023-08-24T14:15:54;34.40;58.00
18141;DHT22;9196;49.194;12.526;2023-08-24T14:18:21;34.30;59.60
18141;DHT22;9196;49.194;12.526;2023-08-24T14:20:48;34.40;59.20
18141;DHT22;9196;49.194;12.526;2023-08-24T14:23:15;34.50;59.80
18141;DHT22;9196;49.194;12.526;2023-08-24T14:25:43;34.50;59.10
18141;DHT22;9196;49.194;12.526;2023-08-24T14:28:11;34.40;57.10
18141;DHT22;9196;49.194;12.526;2023-08-24T14:30:38;34.10;58.20
18141;DHT22;9196;49.194;12.526;2023-08-24T14:33:05;34.10;60.30
18141;DHT22;9196;49.194;12.526;2023-08-24T14:35:32;34.10;59.00
18141;DHT22;9196;49.194;12.526;2023-08-24T14:37:59;33.90;58.60
18141;DHT22;9196;49.194;12.526;2023-08-24T14:40:25;33.60;59.60
18141;DHT22;9196;49.194;12.526;2023-08-24T14:42:52;33.70;60.60
18141;DHT22;9196;49.194;12.526;2023-08-24T14:45:21;33.70;62.40
18141;DHT22;9196;49.194;12.526;2023-08-24T14:47:48;33.70;60.80
18141;DHT22;9196;49.194;12.526;2023-08-24T14:50:15;33.80;60.80
18141;DHT22;9196;49.194;12.526;2023-08-24T14:52:42;34.00;61.60
18141;DHT22;9196;49.194;12.526;2023-08-24T14:55:09;34.30;61.80
18141;DHT22;9196;49.194;12.526;2023-08-24T14:57:36;34.50;60.40
18141;DHT22;9196;49.194;12.526;2023-08-24T15:00:03;34.60;63.40
18141;DHT22;9196;49.194;12.526;2023-08-24T15:02:33;34.70;61.50
18141;DHT22;9196;49.194;12.526;2023-08-24T15:04:59;34.80;62.10
18141;DHT22;9196;49.194;12.526;2023-08-24T15:07:26;34.50;59.20
18141;DHT22;9196;49.194;12.526;2023-08-24T15:09:54;34.20;61.80
18141;DHT22;9196;49.194;12.526;2023-08-24T15:12:21;34.10;59.30
18141;DHT22;9196;49.194;12.526;2023-08-24T15:14:59;33.90;60.90
18141;DHT22;9196;49.194;12.526;2023-08-24T15:17:26;34.20;62.30
18141;DHT22;9196;49.194;12.526;2023-08-24T15:19:55;34.50;62.40
18141;DHT22;9196;49.194;12.526;2023-08-24T15:22:22;34.60;61.40
18141;DHT22;9196;49.194;12.526;2023-08-24T15:24:49;34.70;61.10
18141;DHT22;9196;49.194;12.526;2023-08-24T15:27:16;34.60;59.00
18141;DHT22;9196;49.194;12.526;2023-08-24T15:29:44;34.30;59.50
18141;DHT22;9196;49.194;12.526;2023-08-24T15:32:11;34.00;62.10
18141;DHT22;9196;49.194;12.526;2023-08-24T15:34:39;33.90;63.10